createdAt,value
2023-04-18T00:00:28.167Z,65.20
2023-04-18T00:03:00.920Z,64.67
2023-04-18T00:05:30.907Z,63.80
2023-04-18T00:08:00.725Z,63.80
2023-04-18T00:10:30.524Z,63.14
2023-04-18T00:13:00.626Z,63.14
2023-04-18T00:15:31.097Z,64.02
2023-04-18T00:18:02.619Z,64.16
2023-04-18T00:20:32.934Z,64.10
2023-04-18T00:23:02.725Z,64.47
2023-04-18T00:25:32.622Z,64.05
2023-04-18T00:28:02.177Z,63.51
2023-04-18T00:30:31.733Z,62.77
2023-04-18T00:33:01.772Z,62.40
2023-04-18T00:35:32.002Z,62.40
2023-04-18T00:38:01.773Z,62.64
2023-04-18T00:40:31.441Z,62.33
2023-04-18T00:43:01.394Z,62.72
2023-04-18T00:45:31.531Z,62.78
2023-04-18T00:48:01.639Z,61.33
2023-04-18T00:50:32.084Z,61.34
2023-04-18T00:53:02.035Z,61.34
2023-04-18T00:55:32.301Z,60.96
2023-04-18T00:58:02.357Z,60.78
2023-04-18T01:00:33.139Z,60.35
2023-04-18T01:03:03.477Z,60.94
2023-04-18T01:05:35.683Z,60.42
2023-04-18T01:08:08.463Z,60.55
2023-04-18T01:10:39.026Z,60.59
2023-04-18T01:13:19.475Z,61.09
2023-04-18T01:15:50.872Z,60.52
2023-04-18T01:18:20.844Z,60.70
2023-04-18T01:20:53.115Z,60.38
2023-04-18T01:23:22.894Z,60.53
2023-04-18T01:25:52.884Z,60.73
2023-04-18T01:28:22.776Z,60.73
2023-04-18T01:30:52.560Z,60.80
2023-04-18T01:33:22.806Z,60.94
2023-04-18T01:35:52.899Z,60.59
2023-04-18T01:38:23.865Z,60.59
2023-04-18T01:40:53.854Z,60.94
2023-04-18T01:43:24.637Z,61.04
2023-04-18T01:45:54.704Z,60.78
2023-04-18T01:48:24.420Z,60.90
2023-04-18T01:50:54.235Z,60.67
2023-04-18T01:53:25.426Z,61.29
2023-04-18T01:55:55.274Z,60.84
2023-04-18T01:58:26.669Z,60.77
2023-04-18T02:00:59.724Z,61.03
2023-04-18T02:03:29.724Z,61.02
2023-04-18T02:06:00.561Z,60.78
2023-04-18T02:08:30.876Z,61.50
2023-04-18T02:11:01.356Z,61.43
2023-04-18T02:13:31.405Z,61.03
2023-04-18T02:16:01.218Z,61.12
2023-04-18T02:18:32.666Z,61.16
2023-04-18T02:21:02.443Z,61.51
2023-04-18T02:23:32.244Z,61.86
2023-04-18T02:26:02.087Z,61.96
2023-04-18T02:28:31.649Z,61.55
2023-04-18T02:31:01.551Z,61.78
2023-04-18T02:33:31.478Z,61.59
2023-04-18T02:36:01.793Z,61.23
2023-04-18T02:38:31.911Z,61.57
2023-04-18T02:41:01.725Z,61.79
2023-04-18T02:43:31.787Z,62.08
2023-04-18T02:46:03.291Z,61.84
2023-04-18T02:48:33.212Z,61.88
2023-04-18T02:51:07.291Z,61.67
2023-04-18T02:53:38.668Z,62.51
2023-04-18T02:56:10.597Z,62.51
2023-04-18T02:58:59.954Z,62.60
2023-04-18T03:01:31.590Z,62.77
2023-04-18T03:04:03.272Z,62.69
2023-04-18T03:06:34.814Z,62.25
2023-04-18T03:09:05.175Z,62.51
2023-04-18T03:11:36.302Z,62.93
2023-04-18T03:14:06.252Z,62.55
2023-04-18T03:16:37.859Z,62.87
2023-04-18T03:19:07.743Z,63.35
2023-04-18T03:21:37.806Z,63.02
2023-04-18T03:24:11.976Z,63.34
2023-04-18T03:26:41.915Z,63.61
2023-04-18T03:29:12.068Z,63.17
2023-04-18T03:31:43.148Z,63.25
2023-04-18T03:34:14.119Z,62.70
2023-04-18T03:36:46.555Z,63.19
2023-04-18T03:39:16.348Z,63.57
2023-04-18T03:41:46.543Z,63.43
2023-04-18T03:44:16.660Z,63.50
2023-04-18T03:46:47.619Z,63.24
2023-04-18T03:49:17.734Z,63.63
2023-04-18T03:51:48.482Z,64.21
2023-04-18T03:54:18.462Z,64.05
2023-04-18T03:56:47.981Z,64.36
2023-04-18T03:59:18.226Z,64.50
2023-04-18T04:01:49.293Z,64.06
2023-04-18T04:04:19.873Z,63.84
2023-04-18T04:06:49.636Z,63.75
2023-04-18T04:09:19.525Z,63.86
2023-04-18T04:11:49.635Z,63.86
2023-04-18T04:14:19.481Z,64.05
2023-04-18T04:16:50.091Z,64.20
2023-04-18T04:19:20.010Z,64.48
2023-04-18T04:22:11.118Z,64.32
2023-04-18T04:24:42.025Z,64.18
2023-04-18T04:27:12.614Z,64.53
2023-04-18T04:29:43.686Z,64.86
2023-04-18T04:32:16.833Z,64.25
2023-04-18T04:34:46.691Z,64.86
2023-04-18T04:37:18.156Z,64.01
2023-04-18T04:39:49.940Z,64.41
2023-04-18T04:42:28.406Z,64.76
2023-04-18T04:45:09.369Z,64.92
2023-04-18T04:47:39.317Z,65.56
2023-04-18T04:50:13.714Z,65.45
2023-04-18T04:52:44.341Z,65.13
2023-04-18T04:55:13.992Z,65.65
2023-04-18T04:57:44.909Z,66.07
2023-04-18T05:00:25.312Z,66.28
2023-04-18T05:02:57.376Z,66.49
2023-04-18T05:05:28.114Z,66.41
2023-04-18T05:07:57.903Z,66.10
2023-04-18T05:10:27.599Z,65.89
2023-04-18T05:12:58.155Z,66.17
2023-04-18T05:15:27.824Z,65.65
2023-04-18T05:18:00.654Z,65.41
2023-04-18T05:20:30.486Z,65.27
2023-04-18T05:23:00.335Z,65.30
2023-04-18T05:25:31.410Z,65.65
2023-04-18T05:28:04.714Z,65.91
2023-04-18T05:30:34.531Z,65.92
2023-04-18T05:33:04.795Z,66.45
2023-04-18T05:35:34.799Z,66.35
2023-04-18T05:38:04.958Z,65.54
2023-04-18T05:40:35.022Z,66.00
2023-04-18T05:43:05.374Z,65.33
2023-04-18T05:45:35.806Z,65.34
2023-04-18T05:48:06.042Z,65.80
2023-04-18T05:50:35.866Z,65.21
2023-04-18T05:53:06.019Z,65.37
2023-04-18T05:55:36.188Z,65.46
2023-04-18T05:58:06.603Z,65.60
2023-04-18T06:00:36.620Z,64.88
2023-04-18T06:03:09.248Z,65.20
2023-04-18T06:05:38.542Z,65.60
2023-04-18T06:08:08.754Z,65.73
2023-04-18T06:10:39.218Z,65.13
2023-04-18T06:13:09.476Z,64.89
2023-04-18T06:15:39.290Z,64.79
2023-04-18T06:18:09.457Z,65.75
2023-04-18T06:20:39.753Z,65.56
2023-04-18T06:23:09.894Z,64.85
2023-04-18T06:25:42.986Z,64.54
2023-04-18T06:28:13.104Z,65.32
2023-04-18T06:30:42.930Z,64.47
2023-04-18T06:33:12.754Z,64.11
2023-04-18T06:35:42.797Z,63.97
2023-04-18T06:38:13.564Z,64.61
2023-04-18T06:40:43.678Z,64.23
2023-04-18T06:43:13.448Z,64.26
2023-04-18T06:45:43.053Z,63.81
2023-04-18T06:48:14.264Z,64.18
2023-04-18T06:50:44.718Z,64.01
2023-04-18T06:53:15.374Z,63.65
2023-04-18T06:55:45.500Z,64.13
2023-04-18T06:58:16.876Z,64.04
2023-04-18T07:00:48.457Z,64.52
2023-04-18T07:03:18.612Z,65.16
2023-04-18T07:05:50.367Z,64.90
2023-04-18T07:08:20.053Z,66.02
2023-04-18T07:10:49.864Z,65.38
2023-04-18T07:13:19.664Z,65.53
2023-04-18T07:15:49.694Z,64.92
2023-04-18T07:18:30.276Z,64.75
2023-04-18T07:20:50.949Z,64.49
2023-04-18T07:23:20.510Z,63.87
2023-04-18T07:25:50.402Z,64.00
2023-04-18T07:28:20.913Z,63.60
2023-04-18T07:30:51.435Z,62.87
2023-04-18T07:33:21.270Z,62.93
2023-04-18T07:35:53.029Z,62.93
2023-04-18T07:38:23.275Z,61.73
2023-04-18T07:41:00.460Z,62.27
2023-04-18T07:43:30.437Z,62.32
2023-04-18T07:46:00.634Z,61.70
2023-04-18T07:48:30.179Z,61.01
2023-04-18T07:51:00.364Z,60.94
2023-04-18T07:53:30.169Z,60.49
2023-04-18T07:55:59.987Z,60.46
2023-04-18T07:58:29.638Z,59.34
2023-04-18T08:00:59.464Z,59.34
2023-04-18T08:03:29.722Z,57.74
2023-04-18T08:05:59.688Z,57.74
2023-04-18T08:08:29.329Z,57.16
2023-04-18T08:10:59.140Z,58.35
2023-04-18T08:13:29.447Z,58.08
2023-04-18T08:16:00.273Z,58.50
2023-04-18T08:18:30.136Z,57.58
2023-04-18T08:20:59.944Z,58.46
2023-04-18T08:23:29.831Z,58.12
2023-04-18T08:25:59.691Z,57.34
2023-04-18T08:28:29.212Z,57.49
2023-04-18T08:30:59.103Z,57.20
2023-04-18T08:33:29.887Z,57.06
2023-04-18T08:35:59.709Z,57.92
2023-04-18T08:38:29.566Z,56.46
2023-04-18T08:40:59.364Z,57.15
2023-04-18T08:43:30.550Z,56.47
2023-04-18T08:46:01.659Z,57.56
2023-04-18T08:48:31.495Z,56.84
2023-04-18T08:51:02.047Z,56.84
2023-04-18T08:53:33.423Z,55.42
2023-04-18T08:56:04.847Z,54.69
2023-04-18T08:58:34.859Z,52.93
2023-04-18T09:01:04.845Z,53.56
2023-04-18T09:03:40.479Z,52.22
2023-04-18T09:06:19.379Z,50.89
2023-04-18T09:08:59.443Z,51.12
2023-04-18T09:11:32.322Z,51.12
2023-04-18T09:14:02.567Z,53.05
2023-04-18T09:16:35.607Z,53.05
2023-04-18T09:19:18.300Z,52.87
2023-04-18T09:21:49.955Z,53.04
2023-04-18T09:24:26.423Z,52.71
2023-04-18T09:26:59.642Z,52.99
2023-04-18T09:29:43.370Z,53.74
2023-04-18T09:32:19.315Z,54.42
2023-04-18T09:34:49.403Z,54.66
2023-04-18T09:37:19.195Z,55.41
2023-04-18T09:39:50.620Z,55.65
2023-04-18T09:42:22.084Z,55.56
2023-04-18T09:45:08.788Z,54.82
2023-04-18T09:47:38.600Z,55.45
2023-04-18T09:50:10.706Z,55.17
2023-04-18T09:52:42.656Z,55.31
2023-04-18T09:55:17.800Z,55.31
2023-04-18T09:57:49.526Z,55.65
2023-04-18T10:00:27.308Z,55.42
2023-04-18T10:03:10.651Z,54.88
2023-04-18T10:05:41.380Z,55.00
2023-04-18T10:08:13.569Z,55.12
2023-04-18T10:10:44.284Z,55.12
2023-04-18T10:13:15.520Z,55.52
2023-04-18T10:15:46.018Z,55.42
2023-04-18T10:18:16.943Z,56.59
2023-04-18T10:20:48.471Z,56.59
2023-04-18T10:23:36.345Z,56.05
2023-04-18T10:26:08.131Z,56.05
2023-04-18T10:29:00.825Z,55.74
2023-04-18T10:31:32.714Z,54.83
2023-04-18T10:34:05.884Z,54.55
2023-04-18T10:36:35.971Z,53.65
2023-04-18T10:39:25.393Z,54.35
2023-04-18T10:41:55.251Z,54.35
2023-04-18T10:44:25.624Z,54.06
2023-04-18T10:46:58.885Z,53.55
2023-04-18T10:49:32.859Z,54.81
2023-04-18T10:52:06.001Z,55.59
2023-04-18T10:54:49.985Z,54.95
2023-04-18T10:57:19.794Z,56.09
2023-04-18T10:59:51.758Z,55.51
2023-04-18T11:02:30.258Z,55.51
2023-04-18T11:05:04.005Z,56.27
2023-04-18T11:07:41.545Z,56.67
2023-04-18T11:10:11.342Z,57.43
2023-04-18T11:12:42.345Z,58.12
2023-04-18T11:15:21.898Z,58.16
2023-04-18T11:18:02.706Z,58.82
2023-04-18T11:20:38.072Z,58.39
2023-04-18T11:23:13.054Z,57.79
2023-04-18T11:25:45.714Z,56.55
2023-04-18T11:28:22.177Z,56.58
2023-04-18T11:30:52.256Z,57.05
2023-04-18T11:33:22.149Z,58.08
2023-04-18T11:35:53.453Z,57.40
2023-04-18T11:38:26.307Z,57.40
2023-04-18T11:40:56.250Z,58.27
2023-04-18T11:43:26.809Z,57.82
2023-04-18T11:45:59.076Z,58.26
2023-04-18T11:48:38.705Z,57.28
2023-04-18T11:51:10.709Z,57.70
2023-04-18T11:53:40.431Z,58.02
2023-04-18T11:56:13.304Z,58.75
2023-04-18T11:58:43.537Z,58.73
2023-04-18T12:01:20.953Z,59.03
2023-04-18T12:04:05.612Z,58.99
2023-04-18T12:06:46.593Z,57.72
2023-04-18T12:09:17.676Z,58.63
2023-04-18T12:11:59.476Z,57.76
2023-04-18T12:14:29.583Z,56.79
2023-04-18T12:16:59.468Z,56.82
2023-04-18T12:19:32.602Z,55.61
2023-04-18T12:22:05.119Z,54.95
2023-04-18T12:24:36.036Z,55.28
2023-04-18T12:27:05.939Z,55.28
2023-04-18T12:29:35.910Z,53.63
2023-04-18T12:32:06.140Z,53.98
2023-04-18T12:34:35.971Z,54.45
2023-04-18T12:37:05.856Z,53.93
2023-04-18T12:39:36.102Z,54.71
2023-04-18T12:42:06.064Z,54.14
2023-04-18T12:44:36.328Z,55.10
2023-04-18T12:47:06.191Z,54.88
2023-04-18T12:49:36.328Z,55.07
2023-04-18T12:52:06.295Z,54.65
2023-04-18T12:54:37.985Z,55.19
2023-04-18T12:57:07.893Z,54.25
2023-04-18T12:59:37.696Z,54.13
2023-04-18T13:02:07.912Z,54.33
2023-04-18T13:04:37.997Z,54.18
2023-04-18T13:07:07.813Z,54.14
2023-04-18T13:09:37.992Z,54.99
2023-04-18T13:12:09.208Z,54.51
2023-04-18T13:14:39.533Z,54.96
2023-04-18T13:17:09.824Z,54.21
2023-04-18T13:19:39.360Z,54.21
2023-04-18T13:22:08.959Z,54.42
2023-04-18T13:24:38.801Z,55.12
2023-04-18T13:27:10.482Z,54.52
2023-04-18T13:29:41.096Z,53.91
2023-04-18T13:32:11.691Z,55.13
2023-04-18T13:34:46.908Z,55.07
2023-04-18T13:37:16.820Z,54.18
2023-04-18T13:39:46.630Z,54.47
2023-04-18T13:42:19.217Z,55.03
2023-04-18T13:44:50.050Z,54.38
2023-04-18T13:47:20.357Z,54.83
2023-04-18T13:49:50.185Z,54.11
2023-04-18T13:52:19.727Z,54.20
2023-04-18T13:54:49.853Z,54.11
2023-04-18T13:57:19.640Z,53.82
2023-04-18T13:59:49.485Z,53.63
2023-04-18T14:02:19.433Z,53.08
2023-04-18T14:04:49.413Z,53.54
2023-04-18T14:07:19.329Z,54.31
2023-04-18T14:09:49.119Z,54.84
2023-04-18T14:12:18.634Z,55.01
2023-04-18T14:14:48.566Z,55.29
2023-04-18T14:17:18.401Z,55.10
2023-04-18T14:19:49.284Z,54.12
2023-04-18T14:22:19.490Z,53.70
2023-04-18T14:24:50.946Z,53.62
2023-04-18T14:27:20.652Z,53.57
2023-04-18T14:29:50.610Z,53.75
2023-04-18T14:32:20.293Z,52.97
2023-04-18T14:34:50.332Z,52.61
2023-04-18T14:37:20.199Z,51.78
2023-04-18T14:39:49.754Z,51.83
2023-04-18T14:42:19.834Z,51.45
2023-04-18T14:44:49.649Z,50.46
2023-04-18T14:47:19.867Z,49.96
2023-04-18T14:49:49.705Z,49.81
2023-04-18T14:52:19.539Z,48.97
2023-04-18T14:54:49.347Z,48.94
2023-04-18T14:57:18.874Z,50.26
2023-04-18T14:59:49.582Z,49.88
2023-04-18T15:02:19.752Z,49.65
2023-04-18T15:04:49.929Z,50.84
2023-04-18T15:07:20.051Z,50.84
2023-04-18T15:09:49.607Z,50.92
2023-04-18T15:12:19.360Z,51.98
2023-04-18T15:14:49.487Z,51.45
2023-04-18T15:17:19.310Z,50.71
2023-04-18T15:19:49.110Z,50.39
2023-04-18T15:22:18.914Z,50.38
2023-04-18T15:24:48.783Z,49.78
2023-04-18T15:27:18.617Z,49.72
2023-04-18T15:29:48.132Z,50.22
2023-04-18T15:32:17.987Z,50.41
2023-04-18T15:34:47.809Z,49.66
2023-04-18T15:37:17.794Z,49.66
2023-04-18T15:39:47.621Z,50.80
2023-04-18T15:42:17.439Z,50.48
2023-04-18T15:44:47.029Z,50.68
2023-04-18T15:47:17.031Z,50.51
2023-04-18T15:49:46.854Z,49.26
2023-04-18T15:52:16.728Z,49.02
2023-04-18T15:54:46.539Z,48.33
2023-04-18T15:57:16.347Z,48.41
2023-04-18T15:59:46.186Z,48.04
2023-04-18T16:02:16.497Z,48.47
2023-04-18T16:04:46.291Z,48.61
2023-04-18T16:07:16.220Z,48.55
2023-04-18T16:09:45.833Z,48.37
2023-04-18T16:12:16.205Z,48.94
2023-04-18T16:14:46.016Z,49.37
2023-04-18T16:17:15.635Z,49.24
2023-04-18T16:19:45.436Z,49.01
2023-04-18T16:22:15.900Z,49.05
2023-04-18T16:24:45.791Z,48.69
2023-04-18T16:27:16.139Z,50.83
2023-04-18T16:29:47.106Z,50.83
2023-04-18T16:32:16.752Z,50.35
2023-04-18T16:34:46.623Z,50.12
2023-04-18T16:37:16.510Z,49.08
2023-04-18T16:39:46.305Z,48.17
2023-04-18T16:42:16.042Z,47.98
2023-04-18T16:44:47.110Z,48.62
2023-04-18T16:47:16.926Z,48.80
2023-04-18T16:49:47.684Z,48.83
2023-04-18T16:52:17.703Z,49.35
2023-04-18T16:54:47.525Z,49.96
2023-04-18T16:57:17.718Z,50.04
2023-04-18T16:59:47.504Z,49.95
2023-04-18T17:02:17.143Z,50.11
2023-04-18T17:04:47.309Z,50.35
2023-04-18T17:07:17.194Z,50.53
2023-04-18T17:09:46.991Z,50.43
2023-04-18T17:12:17.183Z,50.37
2023-04-18T17:14:47.010Z,49.67
2023-04-18T17:17:16.804Z,50.18
2023-04-18T17:19:46.612Z,50.85
2023-04-18T17:22:16.874Z,50.85
2023-04-18T17:24:46.701Z,50.61
2023-04-18T17:27:16.492Z,50.97
2023-04-18T17:29:46.617Z,51.35
2023-04-18T17:32:16.197Z,50.72
2023-04-18T17:34:45.991Z,50.51
2023-04-18T17:37:17.016Z,50.68
2023-04-18T17:39:46.900Z,51.52
2023-04-18T17:42:16.810Z,51.65
2023-04-18T17:44:46.606Z,52.04
2023-04-18T17:47:16.437Z,51.85
2023-04-18T17:49:46.403Z,52.01
2023-04-18T17:52:16.106Z,52.51
2023-04-18T17:54:46.006Z,52.26
2023-04-18T17:57:15.791Z,52.41
2023-04-18T17:59:45.628Z,52.62
2023-04-18T18:02:15.188Z,52.79
2023-04-18T18:04:45.574Z,52.90
2023-04-18T18:07:15.570Z,53.33
2023-04-18T18:09:45.548Z,53.65
2023-04-18T18:12:15.655Z,53.56
2023-04-18T18:14:45.456Z,53.79
2023-04-18T18:17:15.351Z,53.90
2023-04-18T18:19:44.942Z,54.53
2023-04-18T18:22:14.461Z,54.50
2023-04-18T18:24:44.032Z,54.27
2023-04-18T18:27:13.879Z,54.49
2023-04-18T18:29:43.700Z,54.77
2023-04-18T18:32:13.253Z,55.05
2023-04-18T18:34:43.151Z,55.67
2023-04-18T18:37:12.944Z,55.44
2023-04-18T18:39:42.789Z,55.25
2023-04-18T18:42:13.083Z,55.62
2023-04-18T18:44:42.970Z,56.33
2023-04-18T18:47:12.811Z,56.73
2023-04-18T18:49:42.641Z,57.10
2023-04-18T18:52:13.285Z,57.48
2023-04-18T18:54:43.112Z,57.60
2023-04-18T18:57:12.939Z,57.71
2023-04-18T18:59:43.313Z,57.89
2023-04-18T19:02:13.523Z,58.14
2023-04-18T19:04:43.738Z,57.91
2023-04-18T19:07:13.628Z,58.46
2023-04-18T19:09:43.809Z,59.17
2023-04-18T19:12:13.492Z,58.94
2023-04-18T19:14:43.316Z,59.56
2023-04-18T19:17:13.299Z,59.61
2023-04-18T19:19:43.504Z,59.67
2023-04-18T19:22:13.138Z,59.42
2023-04-18T19:24:43.057Z,59.38
2023-04-18T19:27:13.169Z,59.79
2023-04-18T19:29:43.080Z,59.53
2023-04-18T19:32:13.230Z,59.77
2023-04-18T19:34:43.043Z,60.18
2023-04-18T19:37:12.871Z,60.07
2023-04-18T19:39:42.452Z,60.39
2023-04-18T19:42:13.172Z,60.63
2023-04-18T19:44:42.976Z,60.92
2023-04-18T19:47:12.808Z,61.43
2023-04-18T19:49:44.288Z,61.63
2023-04-18T19:52:14.191Z,61.35
2023-04-18T19:54:44.000Z,61.28
2023-04-18T19:57:13.828Z,61.67
2023-04-18T19:59:43.638Z,61.80
2023-04-18T20:02:13.549Z,62.15
2023-04-18T20:04:43.999Z,62.07
2023-04-18T20:07:13.995Z,61.92
2023-04-18T20:09:43.801Z,62.68
2023-04-18T20:12:13.346Z,62.53
2023-04-18T20:14:43.135Z,63.20
2023-04-18T20:17:13.346Z,63.09
2023-04-18T20:19:43.449Z,63.12
2023-04-18T20:22:14.849Z,63.63
2023-04-18T20:24:46.399Z,63.39
2023-04-18T20:27:17.945Z,63.39
2023-04-18T20:29:47.949Z,63.50
2023-04-18T20:32:17.757Z,63.27
2023-04-18T20:34:47.575Z,63.23
2023-04-18T20:37:19.020Z,63.58
2023-04-18T20:39:48.810Z,64.06
2023-04-18T20:42:18.625Z,63.87
2023-04-18T20:44:48.762Z,64.35
2023-04-18T20:47:18.579Z,64.12
2023-04-18T20:49:48.088Z,63.57
2023-04-18T20:52:17.903Z,63.43
2023-04-18T20:54:47.773Z,63.61
2023-04-18T20:57:17.572Z,63.61
2023-04-18T20:59:48.257Z,63.78
2023-04-18T21:02:18.201Z,63.93
2023-04-18T21:04:48.666Z,64.09
2023-04-18T21:07:18.906Z,64.18
2023-04-18T21:09:48.757Z,64.37
2023-04-18T21:12:18.540Z,64.29
2023-04-18T21:14:50.479Z,64.64
2023-04-18T21:17:20.396Z,64.65
2023-04-18T21:19:50.582Z,65.07
2023-04-18T21:22:20.446Z,64.84
2023-04-18T21:24:50.623Z,65.02
2023-04-18T21:27:20.775Z,64.55
2023-04-18T21:29:50.601Z,65.07
2023-04-18T21:32:21.022Z,65.07
2023-04-18T21:34:50.874Z,65.48
2023-04-18T21:37:20.697Z,65.48
2023-04-18T21:39:50.692Z,65.29
2023-04-18T21:42:20.196Z,65.55
2023-04-18T21:44:50.688Z,66.19
2023-04-18T21:47:20.963Z,65.62
2023-04-18T21:49:50.902Z,65.71
2023-04-18T21:52:20.698Z,66.20
2023-04-18T21:54:50.549Z,65.99
2023-04-18T21:57:20.637Z,65.95
2023-04-18T21:59:50.863Z,65.60
2023-04-18T22:02:20.751Z,65.60
2023-04-18T22:04:50.793Z,66.28
2023-04-18T22:07:21.382Z,66.08
2023-04-18T22:09:51.194Z,65.97
2023-04-18T22:12:21.562Z,66.45
2023-04-18T22:14:52.832Z,66.61
2023-04-18T22:17:22.734Z,66.21
2023-04-18T22:19:53.604Z,66.33
2023-04-18T22:22:24.757Z,66.33
2023-04-18T22:24:54.561Z,66.44
2023-04-18T22:27:24.393Z,66.72
2023-04-18T22:29:54.207Z,66.43
2023-04-18T22:32:24.353Z,66.46
2023-04-18T22:34:54.233Z,66.27
2023-04-18T22:37:24.146Z,66.52
2023-04-18T22:39:54.004Z,66.44
2023-04-18T22:42:23.497Z,66.75
2023-04-18T22:44:53.590Z,66.40
2023-04-18T22:47:23.750Z,66.51
2023-04-18T22:49:53.863Z,66.30
2023-04-18T22:52:25.919Z,66.43
2023-04-18T22:54:55.712Z,66.88
2023-04-18T22:57:25.901Z,66.24
2023-04-18T22:59:55.876Z,66.12
2023-04-18T23:02:25.723Z,65.98
2023-04-18T23:04:58.945Z,65.97
2023-04-18T23:07:29.042Z,65.55
2023-04-18T23:09:58.861Z,65.72
2023-04-18T23:12:28.367Z,65.87
2023-04-18T23:14:58.187Z,65.34
2023-04-18T23:17:28.013Z,65.32
2023-04-18T23:19:57.849Z,65.60
2023-04-18T23:22:27.889Z,65.60
2023-04-18T23:24:57.794Z,65.58
2023-04-18T23:27:27.696Z,65.22
2023-04-18T23:29:57.254Z,65.55
2023-04-18T23:32:26.762Z,65.54
2023-04-18T23:34:56.589Z,65.50
2023-04-18T23:37:26.229Z,65.81
2023-04-18T23:39:56.020Z,66.04
2023-04-18T23:42:25.960Z,65.55
2023-04-18T23:44:55.845Z,66.08
2023-04-18T23:47:25.485Z,65.70
2023-04-18T23:49:55.591Z,65.07
2023-04-18T23:52:25.454Z,65.72
2023-04-18T23:54:55.605Z,65.75
2023-04-18T23:57:25.680Z,65.34
2023-04-18T23:59:55.527Z,65.58
